Aérodrome :
LOGIN :

S'inscrire | Disclaimer

   EN    FR    IT 

 










Légende :    VFR   VFR Marginal   IFR   IFR Intensif   IFR Très Intensif
Visi : 
Plafond : 
>= 8 km
>= 3000ft
5 à 8 km
1000 à 3000 ft
1500m à 5 km
500 à 1000 ft
800 à 1500m
200 à 500 ft
< 800m
< 200 ft
Symboles :   Orages  Brouillard  Fortes neiges  Fortes précipitations  Vent > 20 kt
SIGMETs :   Divers  Orages  Givrage  Turbulence  Onde Orograph.  Cendres Volcan.







- Altitude de l'aérodrome : 1202 ft
- Code IATA : IGS


ETSI - Ingolstadt

DERNIER METAR :
  • 281720Z AUTO 22003KT 5000 // ////// 16/02 Q1022 ///

METARs EXPIRÉS :
  • 281620Z 24004KT 9999 FEW050 19/00 Q1022 BLU+
  • 281520Z 25004KT 9999 FEW050 19/M02 Q1022 BLU+
  • 281500Z 29004KT 9999 FEW220 19/M02 Q1022 BLU+FCST CANCEL

TAF AMD TAF ETSI
Valide du 28 à 14h jusqu'au 28 à 23h UTC


281440Z 2814/2823 28004KT 9999 NSW SKC CANCEL 1500
Pas de NOTAMs connus pour ce terrain.



MET'MAP, la Météo Aéronautique d'un coup d'oeil ! - Copyright ORBIFLY Décembre 2007 - Disclaimer

ORBIFLY MET'MAP TEAM :

Programmation & Développement : Alexandra Zaïnal
Conception & Développement : Baudouin d'Aumeries
Co-Programmation & Développement : Marc-Olivier Méhu
Soutien technique & logistique : Manuel Goepfert

Contact : metmap@orbifly.com




SOURCES & CREDITS :

   NOAA